Time;durP1;ratioP1;P1;durP2;ratioP2;P2;SDS_P1;SDS_P2;PMS_P1;PMS_P2;Temp;Humidity;BMP_temperature;BMP_pressure;BME280_temperature;BME280_humidity;BME280_pressure;Samples;Min_cycle;Max_cycle;Signal;HPM_P1;HPM_P2
2022/03/25 04:58:20;;;;;;;19.20;8.20;;;;;;;7.76;42.18;101474.56;5606816;31;80199;-52
2022/03/25 05:01:23;;;;;;;15.25;9.77;;;;;;;7.76;42.18;101474.56;5583838;32;34051;-53
2022/03/25 05:04:25;;;;;;;17.27;9.77;;;;;;;7.27;43.00;101478.53;5584887;31;34222;-52
2022/03/25 05:07:27;;;;;;;17.00;8.75;;;;;;;7.34;42.76;101486.41;5582831;32;33567;-52
2022/03/25 05:10:30;;;;;;;15.23;9.57;;;;;;;7.44;42.50;101487.44;5563334;32;34151;-52
2022/03/25 05:13:52;;;;;;;21.52;9.98;;;;;;;7.57;42.42;101481.06;5563524;32;34433;-52
2022/03/25 05:16:54;;;;;;;17.58;9.77;;;;;;;7.66;42.06;101486.88;5563151;32;34284;-52
2022/03/25 05:19:56;;;;;;;17.98;9.93;;;;;;;7.59;42.22;101487.00;5563322;32;34231;-53
2022/03/25 05:22:58;;;;;;;15.75;9.40;;;;;;;7.63;42.26;101484.69;5563319;32;33593;-52
2022/03/25 05:26:01;;;;;;;20.05;9.65;;;;;;;7.68;42.42;101487.44;5563129;32;33494;-52
2022/03/25 05:29:05;;;;;;;20.10;9.73;;;;;;;7.67;42.81;101488.50;5563098;32;34039;-52
2022/03/25 05:32:07;;;;;;;17.35;8.88;;;;;;;7.77;42.35;101488.72;5563017;32;33657;-52
2022/03/25 05:35:11;;;;;;;16.98;9.02;;;;;;;7.81;42.67;101495.19;5562995;32;34371;-52
2022/03/25 05:38:14;;;;;;;16.83;9.63;;;;;;;8.04;42.20;101498.88;5563563;32;33717;-52
2022/03/25 05:41:16;;;;;;;21.60;9.77;;;;;;;8.21;41.77;101489.09;5563358;32;33661;-52
2022/03/25 05:44:19;;;;;;;15.95;9.68;;;;;;;8.34;41.51;101501.34;5563199;32;33565;-52
2022/03/25 05:47:21;;;;;;;22.80;10.63;;;;;;;8.43;41.76;101505.31;5562905;32;33362;-53
2022/03/25 05:50:29;;;;;;;21.55;10.82;;;;;;;8.55;40.84;101510.63;5562880;32;33630;-52
2022/03/25 05:53:31;;;;;;;17.55;11.35;;;;;;;8.63;40.79;101512.91;5562758;32;34345;-52
2022/03/25 05:56:33;;;;;;;16.70;10.32;;;;;;;8.73;41.05;101499.72;5579774;32;33515;-53
2022/03/25 05:59:35;;;;;;;33.63;11.43;;;;;;;8.91;40.57;101504.87;5581946;32;34348;-52
2022/03/25 06:02:38;;;;;;;20.02;10.23;;;;;;;9.17;40.14;101498.09;5580238;31;33746;-53
2022/03/25 06:05:40;;;;;;;22.33;11.38;;;;;;;9.34;40.14;101498.06;5580742;32;33571;-52
2022/03/25 06:08:43;;;;;;;19.02;9.80;;;;;;;9.44;40.00;101491.22;5570394;32;34269;-53
2022/03/25 06:11:45;;;;;;;24.05;11.20;;;;;;;9.65;39.71;101498.53;5566401;32;34403;-52
2022/03/25 06:14:47;;;;;;;23.85;10.70;;;;;;;9.59;39.58;101499.50;5562018;32;33683;-53
2022/03/25 06:17:51;;;;;;;17.58;10.73;;;;;;;9.71;39.74;101499.41;5558029;32;34441;-52
2022/03/25 06:20:53;;;;;;;29.37;11.38;;;;;;;9.78;39.51;101498.16;5568750;32;34257;-53
2022/03/25 06:23:55;;;;;;;19.12;10.57;;;;;;;9.80;40.19;101492.53;5568647;32;33727;-53
2022/03/25 06:26:57;;;;;;;20.85;10.20;;;;;;;9.81;40.46;101497.66;5568795;32;33203;-52
2022/03/25 06:30:00;;;;;;;19.60;11.55;;;;;;;9.98;40.50;101502.16;5568086;32;33927;-52
2022/03/25 06:33:04;;;;;;;25.02;11.75;;;;;;;10.25;39.64;101505.72;5566788;32;33634;-52
2022/03/25 06:36:09;;;;;;;20.62;11.65;;;;;;;10.39;39.64;101505.34;5567844;32;34388;-53
2022/03/25 06:39:11;;;;;;;25.37;10.80;;;;;;;10.56;39.14;101500.72;5568524;32;33221;-52
2022/03/25 06:42:14;;;;;;;19.35;10.95;;;;;;;10.74;39.73;101500.38;5568488;32;33424;-54
2022/03/25 06:45:18;;;;;;;28.75;12.20;;;;;;;11.05;38.46;101512.19;5567032;32;33635;-54
2022/03/25 06:48:20;;;;;;;27.50;12.00;;;;;;;11.09;39.18;101506.31;5565623;32;33461;-53
2022/03/25 06:51:23;;;;;;;30.23;11.75;;;;;;;11.24;38.73;101501.06;5565423;32;31889;-52
2022/03/25 06:54:26;;;;;;;20.95;12.13;;;;;;;11.43;38.43;101504.16;5566981;32;33176;-51
2022/03/25 06:57:28;;;;;;;20.60;11.68;;;;;;;11.53;38.96;101523.03;5567733;32;34269;-54
2022/03/25 07:00:31;;;;;;;22.45;11.82;;;;;;;11.63;38.26;101512.34;5567144;32;33613;-53
2022/03/25 07:03:34;;;;;;;22.67;11.82;;;;;;;11.77;37.81;101520.75;5567807;32;33744;-53
2022/03/25 07:06:38;;;;;;;22.98;12.37;;;;;;;11.85;37.69;101514.91;5561266;32;34409;-54
2022/03/25 07:09:40;;;;;;;26.12;11.48;;;;;;;11.90;37.52;101517.63;5548060;32;34127;-52
2022/03/25 07:12:45;;;;;;;26.90;12.10;;;;;;;12.10;37.65;101524.19;5548118;32;33596;-53
2022/03/25 07:15:48;;;;;;;24.08;12.10;;;;;;;12.25;36.94;101518.88;5555906;32;33100;-53
2022/03/25 07:18:50;;;;;;;20.33;12.40;;;;;;;12.55;36.54;101522.72;5566566;32;33551;-53
2022/03/25 07:21:54;;;;;;;20.60;12.73;;;;;;;12.70;34.94;101528.13;5557906;32;33432;-53
2022/03/25 07:24:56;;;;;;;26.17;12.07;;;;;;;12.74;34.38;101531.09;5567201;32;33790;-54
2022/03/25 07:27:58;;;;;;;24.17;13.73;;;;;;;12.86;34.17;101527.09;5567551;32;34184;-52
2022/03/25 07:31:01;;;;;;;21.20;11.95;;;;;;;13.04;34.34;101531.13;5566595;32;34331;-53
2022/03/25 07:34:03;;;;;;;17.33;11.82;;;;;;;13.19;34.18;101532.22;5565585;32;33755;-54
2022/03/25 07:37:06;;;;;;;21.62;12.37;;;;;;;13.22;33.14;101529.81;5567514;32;33275;-53
2022/03/25 07:40:10;;;;;;;20.30;11.88;;;;;;;13.33;33.47;101534.13;5566939;32;34266;-54
2022/03/25 07:43:12;;;;;;;21.02;11.63;;;;;;;13.53;33.17;101538.69;5550246;32;33343;-53
2022/03/25 07:46:16;;;;;;;20.62;13.00;;;;;;;13.88;32.31;101541.63;5567324;32;34275;-53
2022/03/25 07:49:19;;;;;;;29.05;12.35;;;;;;;13.87;31.73;101540.78;5566410;32;33312;-53
2022/03/25 07:52:22;;;;;;;18.52;11.15;;;;;;;13.88;31.93;101537.03;5565887;32;33773;-52
2022/03/25 07:55:31;;;;;;;17.70;11.25;;;;;;;13.95;31.94;101547.53;5566655;32;33894;-52
2022/03/25 07:58:33;;;;;;;19.87;10.65;;;;;;;13.98;32.10;101550.47;5567607;32;33908;-55
2022/03/25 08:01:36;;;;;;;17.20;10.30;;;;;;;14.07;32.27;101542.59;5567948;32;33142;-53
2022/03/25 08:04:39;;;;;;;20.02;10.73;;;;;;;14.14;32.86;101539.63;5567507;32;33663;-52
2022/03/25 08:07:42;;;;;;;18.15;10.68;;;;;;;14.30;32.37;101538.47;5567653;32;33849;-53
2022/03/25 08:10:45;;;;;;;16.08;11.02;;;;;;;14.21;31.93;101538.25;5566767;32;34007;-54
2022/03/25 08:13:47;;;;;;;17.05;10.48;;;;;;;14.29;31.33;101534.16;5567583;32;33362;-52
2022/03/25 08:16:50;;;;;;;18.48;10.57;;;;;;;14.28;31.22;101533.38;5566642;32;33575;-53
2022/03/25 08:19:53;;;;;;;18.15;10.90;;;;;;;14.34;31.33;101534.97;5564427;32;34331;-54
2022/03/25 08:22:57;;;;;;;19.05;11.05;;;;;;;14.36;30.76;101523.88;5567328;32;33375;-53
2022/03/25 08:29:22;;;;;;;22.37;13.15;;;;;;;14.42;31.09;101530.06;5562556;32;33484;-54
2022/03/25 08:32:24;;;;;;;19.37;12.32;;;;;;;14.55;31.48;101527.59;5562307;32;33255;-53
2022/03/25 08:35:27;;;;;;;19.23;11.23;;;;;;;14.63;31.10;101538.87;5558405;32;33424;-53
2022/03/25 08:38:29;;;;;;;17.95;10.60;;;;;;;14.65;30.53;101531.31;5564294;32;33202;-52
2022/03/25 08:41:32;;;;;;;18.17;10.75;;;;;;;14.54;30.19;101526.00;5560094;32;33687;-53
2022/03/25 08:44:34;;;;;;;17.98;10.30;;;;;;;14.48;30.51;101524.38;5549785;32;33685;-53
2022/03/25 08:47:37;;;;;;;16.83;11.27;;;;;;;14.58;31.68;101523.53;5563543;32;34310;-54
2022/03/25 08:50:39;;;;;;;15.25;10.20;;;;;;;14.70;30.79;101525.88;5564953;32;33432;-53
2022/03/25 08:53:43;;;;;;;19.70;10.60;;;;;;;14.74;31.79;101519.66;5558515;32;33560;-53
2022/03/25 08:56:47;;;;;;;18.50;10.93;;;;;;;14.82;30.59;101526.34;5566498;32;34510;-53
2022/03/25 08:59:49;;;;;;;18.83;9.88;;;;;;;14.92;30.65;101520.06;5565636;32;33583;-53
2022/03/25 09:02:51;;;;;;;19.77;10.70;;;;;;;15.01;32.75;101519.19;5566717;32;34477;-53
2022/03/25 09:05:54;;;;;;;20.00;9.68;;;;;;;15.11;29.65;101517.50;5565687;32;33737;-53
2022/03/25 09:08:56;;;;;;;15.93;9.48;;;;;;;15.20;29.28;101522.03;5565913;31;33407;-53
2022/03/25 09:11:59;;;;;;;22.08;10.75;;;;;;;15.25;30.82;101523.84;5566554;32;33168;-52
2022/03/25 09:15:06;;;;;;;20.15;10.95;;;;;;;15.23;29.52;101513.34;5562167;32;33395;-53
2022/03/25 09:18:08;;;;;;;20.37;10.20;;;;;;;15.28;30.04;101510.59;5563236;32;33697;-53
2022/03/25 09:21:11;;;;;;;16.10;9.40;;;;;;;15.30;28.81;101518.41;5562931;32;33685;-53
2022/03/25 09:24:13;;;;;;;15.70;10.10;;;;;;;15.34;28.82;101518.66;5564954;32;33791;-53
2022/03/25 09:27:15;;;;;;;17.15;9.52;;;;;;;15.33;28.59;101523.25;5564208;32;33636;-53
2022/03/25 09:30:18;;;;;;;21.95;10.88;;;;;;;15.43;29.21;101514.22;5564456;32;33865;-54
2022/03/25 09:33:36;;;;;;;25.52;10.35;;;;;;;15.50;29.13;101514.72;5563606;32;33164;-54
2022/03/25 09:36:39;;;;;;;15.45;8.80;;;;;;;15.58;28.63;101511.37;5564907;32;33469;-53
2022/03/25 09:39:41;;;;;;;16.37;9.88;;;;;;;15.72;31.56;101501.53;5564761;32;33905;-52
2022/03/25 09:42:45;;;;;;;19.73;10.32;;;;;;;15.89;28.33;101508.37;5562046;32;34852;-54
2022/03/25 09:45:47;;;;;;;23.95;10.05;;;;;;;15.83;29.59;101501.44;5566061;32;34599;-53
2022/03/25 09:48:49;;;;;;;17.55;10.40;;;;;;;15.94;29.04;101511.84;5566802;32;33577;-52
2022/03/25 09:52:04;;;;;;;16.85;9.45;;;;;;;16.03;27.97;101513.91;5568475;32;33575;-54
2022/03/25 09:55:10;;;;;;;30.77;10.52;;;;;;;15.97;28.54;101513.97;5560345;32;34271;-52
2022/03/25 09:58:18;;;;;;;22.92;10.50;;;;;;;15.94;29.59;101498.31;5552725;32;33911;-53
2022/03/25 10:01:21;;;;;;;21.37;10.68;;;;;;;16.05;31.67;101490.87;5561515;32;33736;-53
2022/03/25 10:04:43;;;;;;;20.35;10.18;;;;;;;16.08;28.49;101494.91;5564586;32;33743;-54
2022/03/25 10:07:49;;;;;;;17.42;10.65;;;;;;;15.95;28.12;101493.69;5567041;32;33877;-54
2022/03/25 10:10:53;;;;;;;23.83;10.52;;;;;;;15.94;28.03;101481.28;5562555;32;33502;-54
2022/03/25 10:14:27;;;;;;;25.83;11.23;;;;;;;16.01;30.29;101491.75;5559980;32;34332;-53
2022/03/25 10:17:45;;;;;;;24.52;10.10;;;;;;;16.03;28.26;101471.44;5563961;32;34106;-55
2022/03/25 10:20:53;;;;;;;20.95;10.50;;;;;;;16.08;28.03;101471.34;5563229;32;34595;-54
2022/03/25 10:23:55;;;;;;;33.35;10.80;;;;;;;16.15;28.08;101465.59;5562400;32;32282;-53
2022/03/25 10:27:05;;;;;;;22.25;11.35;;;;;;;16.20;27.97;101457.41;5560871;32;34004;-53
2022/03/25 10:30:08;;;;;;;24.63;12.02;;;;;;;16.27;28.08;101463.28;5566289;32;33020;-54
2022/03/25 10:33:32;;;;;;;27.45;11.15;;;;;;;16.29;28.06;101452.97;5564132;32;33237;-53
2022/03/25 10:36:34;;;;;;;22.40;10.98;;;;;;;16.35;27.73;101448.28;5564331;32;34312;-55
2022/03/25 10:39:37;;;;;;;40.15;12.73;;;;;;;16.44;28.07;101450.03;5563470;32;33068;-54
2022/03/25 10:43:06;;;;;;;23.02;11.27;;;;;;;16.52;28.51;101437.72;5565635;32;33953;-53
2022/03/25 10:46:28;;;;;;;19.65;11.45;;;;;;;16.64;27.57;101446.19;5556332;32;33347;-53
2022/03/25 10:49:43;;;;;;;20.80;11.45;;;;;;;16.77;27.05;101441.97;5565464;32;33994;-53
2022/03/25 10:52:46;;;;;;;19.33;11.85;;;;;;;16.76;27.85;101431.44;5566713;32;34286;-52
2022/03/25 10:56:00;;;;;;;18.10;10.77;;;;;;;16.94;29.01;101429.78;5566055;32;33658;-53
2022/03/25 10:59:02;;;;;;;21.95;10.55;;;;;;;17.00;29.59;101420.47;5565356;32;34451;-54
2022/03/25 11:02:07;;;;;;;16.55;11.40;;;;;;;16.99;27.54;101416.16;5566398;32;34233;-53
2022/03/25 11:05:10;;;;;;;16.75;10.70;;;;;;;16.94;26.77;101411.62;5566410;32;33212;-53
2022/03/25 11:08:12;;;;;;;17.12;9.52;;;;;;;17.04;28.51;101413.34;5564956;32;34340;-53
2022/03/25 11:11:16;;;;;;;17.37;10.68;;;;;;;17.17;30.51;101399.03;5566631;32;33593;-53
2022/03/25 11:14:22;;;;;;;16.40;10.23;;;;;;;17.31;26.14;101407.97;5565951;32;33193;-52
2022/03/25 11:17:26;;;;;;;18.67;9.30;;;;;;;17.12;25.63;101399.13;5557563;32;34329;-53
2022/03/25 11:20:29;;;;;;;17.73;11.52;;;;;;;17.13;27.23;101396.13;5560726;32;33371;-53
2022/03/25 11:23:57;;;;;;;19.85;11.02;;;;;;;17.18;25.71;101397.91;5566061;32;33722;-52
2022/03/25 11:27:06;;;;;;;17.23;11.60;;;;;;;17.26;26.60;101393.72;5562430;32;34369;-54
2022/03/25 11:30:09;;;;;;;25.10;11.43;;;;;;;17.35;26.37;101387.31;5561559;32;33825;-53
2022/03/25 11:33:12;;;;;;;19.73;11.95;;;;;;;17.41;27.45;101377.16;5562428;32;34472;-53
2022/03/25 11:36:19;;;;;;;21.45;11.65;;;;;;;17.58;26.64;101382.78;5565520;32;34257;-53
2022/03/25 11:39:24;;;;;;;19.25;11.75;;;;;;;17.61;26.88;101375.94;5562374;32;33707;-53
2022/03/25 11:42:41;;;;;;;18.75;11.32;;;;;;;17.62;26.04;101374.84;5566303;32;34363;-53
2022/03/25 11:46:00;;;;;;;19.55;11.85;;;;;;;17.59;25.76;101370.03;5563723;32;33881;-53
2022/03/25 11:49:17;;;;;;;21.98;11.25;;;;;;;17.63;25.83;101379.16;5558579;32;34270;-53
2022/03/25 11:52:22;;;;;;;17.70;10.85;;;;;;;17.66;26.83;101373.13;5560389;32;34971;-54
2022/03/25 11:55:25;;;;;;;25.30;13.25;;;;;;;17.69;25.89;101350.03;5567296;32;33713;-53
2022/03/25 11:58:29;;;;;;;18.08;11.05;;;;;;;17.67;25.74;101352.22;5566025;32;34345;-53
2022/03/25 12:01:47;;;;;;;20.25;11.57;;;;;;;17.69;26.40;101347.31;5565670;32;33874;-53
2022/03/25 12:04:50;;;;;;;15.23;10.57;;;;;;;17.73;25.95;101351.81;5563006;32;33680;-53
2022/03/25 12:08:24;;;;;;;15.65;9.63;;;;;;;17.79;26.03;101338.97;5566016;31;35099;-55
2022/03/25 12:11:52;;;;;;;13.20;8.68;;;;;;;17.86;28.72;101338.56;5567263;32;34198;-53
2022/03/25 12:15:10;;;;;;;12.32;7.55;;;;;;;17.91;27.69;101325.66;5561994;32;34311;-53
2022/03/25 12:18:38;;;;;;;13.75;7.10;;;;;;;17.95;24.75;101334.81;5557166;32;33717;-53
2022/03/25 12:21:43;;;;;;;14.23;6.97;;;;;;;17.81;24.21;101334.03;5554381;32;34375;-54
2022/03/25 12:24:47;;;;;;;13.93;7.13;;;;;;;17.79;24.50;101334.34;5566365;32;33693;-53
2022/03/25 12:27:52;;;;;;;13.68;6.72;;;;;;;17.79;24.74;101328.94;5559681;32;33954;-53
2022/03/25 12:30:55;;;;;;;16.05;8.10;;;;;;;17.76;25.01;101328.72;5560588;32;33853;-53
2022/03/25 12:34:00;;;;;;;8.93;5.82;;;;;;;17.84;25.32;101330.72;5563053;32;34416;-53
2022/03/25 12:37:04;;;;;;;9.75;5.47;;;;;;;17.82;24.62;101316.69;5567130;32;33287;-52
2022/03/25 12:40:23;;;;;;;11.95;5.85;;;;;;;17.83;25.20;101316.34;5564388;32;33513;-53
2022/03/25 12:43:30;;;;;;;8.30;4.97;;;;;;;17.89;24.11;101316.25;5548354;32;33665;-53
2022/03/25 12:46:32;;;;;;;;;;;;;;;17.87;24.91;101310.31;5563084;32;33326;-53
2022/03/25 12:49:35;;;;;;;9.38;5.22;;;;;;;17.90;24.28;101313.22;5554624;32;34066;-54
2022/03/25 12:52:37;;;;;;;8.68;5.35;;;;;;;17.90;24.15;101304.28;5554668;32;34370;-54
2022/03/25 12:55:40;;;;;;;8.95;5.03;;;;;;;17.82;24.13;101303.12;5557716;32;34430;-53
2022/03/25 12:58:42;;;;;;;8.57;5.40;;;;;;;17.92;23.86;101294.75;5563432;32;34224;-53
2022/03/25 13:01:46;;;;;;;9.68;5.82;;;;;;;17.94;24.60;101303.34;5567212;32;33703;-53
2022/03/25 13:04:48;;;;;;;8.98;6.03;;;;;;;17.95;24.05;101304.97;5565096;32;33835;-52
2022/03/25 13:07:52;;;;;;;9.52;5.57;;;;;;;17.92;23.75;101288.53;5559411;32;34345;-54
2022/03/25 13:10:59;;;;;;;11.85;5.43;;;;;;;17.88;23.66;101295.63;5567291;32;34406;-52
2022/03/25 13:14:01;;;;;;;9.27;4.95;;;;;;;17.80;23.62;101294.47;5567377;32;33737;-54
2022/03/25 13:17:03;;;;;;;12.23;6.07;;;;;;;17.88;25.29;101288.34;5566961;32;34204;-53
2022/03/25 13:20:34;;;;;;;11.95;6.10;;;;;;;17.95;24.80;101288.69;5569161;32;34457;-53
2022/03/25 13:23:38;;;;;;;13.88;6.15;;;;;;;18.05;23.61;101287.66;5568430;32;33754;-53
2022/03/25 13:26:40;;;;;;;11.90;5.62;;;;;;;18.03;23.15;101282.53;5563840;32;33714;-53
2022/03/25 13:29:42;;;;;;;9.25;5.90;;;;;;;18.05;23.18;101282.22;5569314;32;34055;-54
2022/03/25 13:32:45;;;;;;;13.32;6.25;;;;;;;18.03;22.71;101285.25;5566912;32;33318;-52
2022/03/25 13:35:54;;;;;;;11.63;6.28;;;;;;;18.10;22.48;101284.81;5561029;32;33740;-53
2022/03/25 13:39:17;;;;;;;11.45;6.60;;;;;;;18.05;22.41;101283.03;5550559;32;33661;-53
2022/03/25 13:42:19;;;;;;;12.20;6.00;;;;;;;17.99;22.60;101286.19;5568639;32;34307;-53
2022/03/25 13:45:22;;;;;;;9.38;5.90;;;;;;;18.07;22.71;101275.38;5568869;32;32196;-53
2022/03/25 13:48:24;;;;;;;10.68;5.18;;;;;;;18.22;22.33;101281.53;5569632;32;33287;-52
2022/03/25 13:51:36;;;;;;;9.75;5.28;;;;;;;18.19;22.19;101276.75;5569986;32;33602;-53
2022/03/25 13:54:38;;;;;;;8.93;5.47;;;;;;;18.19;22.04;101269.38;5569298;32;33661;-53
2022/03/25 13:57:41;;;;;;;10.23;6.35;;;;;;;18.21;21.85;101274.50;5569463;32;34421;-53
2022/03/25 14:00:52;;;;;;;11.35;7.22;;;;;;;18.17;21.43;101274.31;5570611;32;33705;-53
2022/03/25 14:04:09;;;;;;;13.27;7.90;;;;;;;18.19;22.15;101274.81;5569499;32;34459;-53
2022/03/25 14:07:16;;;;;;;14.75;7.65;;;;;;;18.31;21.86;101272.34;5569682;32;34325;-53
2022/03/25 14:10:19;;;;;;;13.88;8.02;;;;;;;18.28;22.02;101272.16;5560554;32;34186;-52
2022/03/25 14:13:21;;;;;;;12.85;8.13;;;;;;;18.31;21.99;101271.56;5552787;32;33693;-53
2022/03/25 14:16:26;;;;;;;14.87;7.60;;;;;;;18.19;21.73;101255.03;5569550;32;33994;-52
2022/03/25 14:19:28;;;;;;;14.35;7.68;;;;;;;18.26;22.39;101266.25;5568781;32;34273;-53
2022/03/25 14:22:31;;;;;;;11.90;7.00;;;;;;;18.20;22.01;101265.56;5568949;32;33937;-53
2022/03/25 14:25:33;;;;;;;19.70;7.18;;;;;;;18.23;21.25;101261.44;5555235;32;33778;-52
2022/03/25 14:28:36;;;;;;;15.15;7.12;;;;;;;18.34;20.54;101261.97;5561460;32;33802;-55
2022/03/25 14:31:42;;;;;;;13.13;7.78;;;;;;;18.31;21.05;101255.25;5567098;32;33624;-52
2022/03/25 14:34:45;;;;;;;14.27;9.00;;;;;;;18.43;21.84;101266.34;5568687;32;33852;-52
2022/03/25 14:37:48;;;;;;;14.77;8.98;;;;;;;18.36;21.41;101257.03;5566126;32;33240;-52
2022/03/25 14:40:50;;;;;;;14.87;8.30;;;;;;;18.26;21.81;101260.81;5568578;32;33664;-53
2022/03/25 14:43:52;;;;;;;11.73;7.05;;;;;;;18.28;22.27;101255.88;5568358;32;33942;-54
2022/03/25 14:46:55;;;;;;;13.82;8.98;;;;;;;18.36;21.66;101259.75;5568359;32;33815;-53
2022/03/25 14:49:57;;;;;;;17.60;7.78;;;;;;;18.49;23.03;101256.94;5569002;32;33643;-52
2022/03/25 14:53:00;;;;;;;16.58;8.80;;;;;;;18.45;21.71;101249.75;5569726;32;33823;-53
2022/03/25 14:56:03;;;;;;;12.82;9.20;;;;;;;18.47;21.17;101251.00;5565446;32;33910;-52
2022/03/25 14:59:07;;;;;;;11.98;8.02;;;;;;;18.41;21.62;101251.47;5568308;32;33750;-53
2022/03/25 15:02:10;;;;;;;16.42;7.85;;;;;;;18.42;22.20;101245.72;5569369;32;33630;-53
2022/03/25 15:05:13;;;;;;;14.48;8.75;;;;;;;18.45;22.05;101241.59;5569275;32;33652;-54
2022/03/25 15:08:15;;;;;;;18.85;8.90;;;;;;;18.52;22.30;101244.66;5558789;32;33642;-53
2022/03/25 15:11:18;;;;;;;14.52;8.35;;;;;;;18.49;22.51;101243.37;5550306;32;33728;-54
2022/03/25 15:14:20;;;;;;;16.23;9.43;;;;;;;18.51;22.30;101251.22;5550564;32;33770;-53
2022/03/25 15:17:22;;;;;;;15.27;7.72;;;;;;;18.47;22.16;101236.63;5565531;32;33333;-53
2022/03/25 15:20:25;;;;;;;15.68;9.07;;;;;;;18.47;22.19;101242.06;5570060;32;33714;-53
2022/03/25 15:23:27;;;;;;;17.77;8.63;;;;;;;18.55;21.89;101242.12;5569983;32;33205;-53
2022/03/25 15:26:30;;;;;;;15.93;8.60;;;;;;;18.52;21.91;101240.03;5568604;32;33753;-53
2022/03/25 15:36:14;;;;;;;12.65;7.95;;;;;;;18.41;22.46;101243.31;5569624;32;33681;-53
2022/03/25 15:42:58;;;;;;;14.15;8.40;;;;;;;18.37;23.48;101248.56;5569240;32;34422;-52
2022/03/25 15:46:01;;;;;;;15.10;8.85;;;;;;;18.24;23.20;101252.16;5566226;32;33723;-54
2022/03/25 15:49:04;;;;;;;16.75;9.32;;;;;;;18.28;23.16;101248.53;5565728;32;34731;-53
2022/03/25 15:52:09;;;;;;;15.73;9.07;;;;;;;18.20;23.24;101252.00;5560852;32;33419;-53
2022/03/25 15:55:11;;;;;;;15.00;9.60;;;;;;;18.10;23.23;101246.03;5549324;32;34348;-52
2022/03/25 15:58:14;;;;;;;15.10;8.35;;;;;;;18.11;23.12;101253.84;5567318;32;33745;-53
2022/03/25 16:01:16;;;;;;;12.60;8.50;;;;;;;18.13;23.41;101256.25;5569755;32;33833;-53
2022/03/25 16:04:19;;;;;;;12.25;8.15;;;;;;;18.19;23.50;101253.09;5570912;32;33786;-52
2022/03/25 16:07:21;;;;;;;12.82;8.52;;;;;;;18.19;23.37;101247.69;5569974;32;34337;-53
2022/03/25 16:10:24;;;;;;;13.48;8.48;;;;;;;18.16;23.34;101259.16;5555841;32;34431;-53
2022/03/25 16:13:28;;;;;;;15.43;8.68;;;;;;;18.17;23.44;101247.19;5563878;32;33785;-53
2022/03/25 16:16:31;;;;;;;17.50;8.52;;;;;;;18.11;23.32;101258.47;5560271;32;34326;-53
2022/03/25 16:19:35;;;;;;;12.90;7.72;;;;;;;18.13;23.47;101253.53;5558114;32;32331;-52
2022/03/25 16:22:40;;;;;;;14.63;8.38;;;;;;;18.14;23.71;101264.06;5559056;32;33561;-53
2022/03/25 16:25:43;;;;;;;12.73;7.87;;;;;;;18.15;23.78;101252.12;5555480;32;33393;-53
2022/03/25 16:28:46;;;;;;;63.00;56.33;;;;;;;18.11;23.70;101258.47;5568591;32;34231;-53
2022/03/25 16:31:49;;;;;;;36.33;29.30;;;;;;;18.06;24.32;101253.97;5568775;32;33643;-52
